sensor_id;sensor_type;location;lat;lon;timestamp;P1;durP1;ratioP1;P2;durP2;ratioP2
78995;SDS011;68401;47.192;-1.552;2023-10-09T00:00:53;9.13;;;5.40;;
78995;SDS011;68401;47.192;-1.552;2023-10-09T00:03:26;10.93;;;6.40;;
78995;SDS011;68401;47.192;-1.552;2023-10-09T00:05:53;9.13;;;6.53;;
78995;SDS011;68401;47.192;-1.552;2023-10-09T00:08:19;9.63;;;6.30;;
78995;SDS011;68401;47.192;-1.552;2023-10-09T00:11:04;11.88;;;5.70;;
78995;SDS011;68401;47.192;-1.552;2023-10-09T00:13:42;9.70;;;6.30;;
78995;SDS011;68401;47.192;-1.552;2023-10-09T00:16:17;11.93;;;7.55;;
78995;SDS011;68401;47.192;-1.552;2023-10-09T00:19:00;10.68;;;6.20;;
78995;SDS011;68401;47.192;-1.552;2023-10-09T00:21:48;9.32;;;5.32;;
78995;SDS011;68401;47.192;-1.552;2023-10-09T00:24:14;8.38;;;5.60;;
78995;SDS011;68401;47.192;-1.552;2023-10-09T00:26:48;10.15;;;6.00;;
78995;SDS011;68401;47.192;-1.552;2023-10-09T00:29:44;8.77;;;4.90;;
78995;SDS011;68401;47.192;-1.552;2023-10-09T00:32:11;7.93;;;4.97;;
78995;SDS011;68401;47.192;-1.552;2023-10-09T00:34:51;7.85;;;4.05;;
78995;SDS011;68401;47.192;-1.552;2023-10-09T00:37:17;7.15;;;3.85;;
78995;SDS011;68401;47.192;-1.552;2023-10-09T00:39:50;7.45;;;3.92;;
78995;SDS011;68401;47.192;-1.552;2023-10-09T00:42:22;6.80;;;4.00;;
78995;SDS011;68401;47.192;-1.552;2023-10-09T00:44:58;6.55;;;3.65;;
78995;SDS011;68401;47.192;-1.552;2023-10-09T00:47:44;8.80;;;4.40;;
78995;SDS011;68401;47.192;-1.552;2023-10-09T00:50:12;6.97;;;3.58;;
78995;SDS011;68401;47.192;-1.552;2023-10-09T00:55:15;7.30;;;3.72;;
78995;SDS011;68401;47.192;-1.552;2023-10-09T00:57:47;7.20;;;3.80;;
78995;SDS011;68401;47.192;-1.552;2023-10-09T01:00:25;8.05;;;4.45;;
78995;SDS011;68401;47.192;-1.552;2023-10-09T01:03:18;7.25;;;4.20;;
78995;SDS011;68401;47.192;-1.552;2023-10-09T01:05:54;6.47;;;4.13;;
78995;SDS011;68401;47.192;-1.552;2023-10-09T01:08:26;9.00;;;4.60;;
78995;SDS011;68401;47.192;-1.552;2023-10-09T01:10:57;6.53;;;3.78;;
78995;SDS011;68401;47.192;-1.552;2023-10-09T01:13:33;6.97;;;4.03;;
78995;SDS011;68401;47.192;-1.552;2023-10-09T01:16:18;9.55;;;4.25;;
78995;SDS011;68401;47.192;-1.552;2023-10-09T01:18:50;6.03;;;3.58;;
78995;SDS011;68401;47.192;-1.552;2023-10-09T01:21:17;6.63;;;3.92;;
78995;SDS011;68401;47.192;-1.552;2023-10-09T01:23:48;7.97;;;3.88;;
78995;SDS011;68401;47.192;-1.552;2023-10-09T01:26:32;5.95;;;3.95;;
78995;SDS011;68401;47.192;-1.552;2023-10-09T01:29:02;11.32;;;4.13;;
78995;SDS011;68401;47.192;-1.552;2023-10-09T01:31:29;6.05;;;3.50;;
78995;SDS011;68401;47.192;-1.552;2023-10-09T01:33:58;7.15;;;4.07;;
78995;SDS011;68401;47.192;-1.552;2023-10-09T01:36:27;9.52;;;3.95;;
78995;SDS011;68401;47.192;-1.552;2023-10-09T01:41:25;6.75;;;3.67;;
78995;SDS011;68401;47.192;-1.552;2023-10-09T01:43:50;5.25;;;4.13;;
78995;SDS011;68401;47.192;-1.552;2023-10-09T01:46:16;8.00;;;3.95;;
78995;SDS011;68401;47.192;-1.552;2023-10-09T01:48:45;6.22;;;3.65;;
78995;SDS011;68401;47.192;-1.552;2023-10-09T01:51:15;6.15;;;3.92;;
78995;SDS011;68401;47.192;-1.552;2023-10-09T01:53:46;7.25;;;3.30;;
78995;SDS011;68401;47.192;-1.552;2023-10-09T01:56:19;9.18;;;4.60;;
78995;SDS011;68401;47.192;-1.552;2023-10-09T01:58:45;7.97;;;3.65;;
78995;SDS011;68401;47.192;-1.552;2023-10-09T02:01:12;6.63;;;3.58;;
78995;SDS011;68401;47.192;-1.552;2023-10-09T02:03:39;8.60;;;3.72;;
78995;SDS011;68401;47.192;-1.552;2023-10-09T02:06:07;6.60;;;3.40;;
78995;SDS011;68401;47.192;-1.552;2023-10-09T02:08:53;8.82;;;3.65;;
78995;SDS011;68401;47.192;-1.552;2023-10-09T02:11:19;5.75;;;3.28;;
78995;SDS011;68401;47.192;-1.552;2023-10-09T02:14:03;6.10;;;3.38;;
78995;SDS011;68401;47.192;-1.552;2023-10-09T02:16:40;7.00;;;3.45;;
78995;SDS011;68401;47.192;-1.552;2023-10-09T02:19:07;5.57;;;3.67;;
78995;SDS011;68401;47.192;-1.552;2023-10-09T02:21:55;7.22;;;3.88;;
78995;SDS011;68401;47.192;-1.552;2023-10-09T02:24:22;6.78;;;4.05;;
78995;SDS011;68401;47.192;-1.552;2023-10-09T02:26:53;6.25;;;3.80;;
78995;SDS011;68401;47.192;-1.552;2023-10-09T02:29:19;10.32;;;4.35;;
78995;SDS011;68401;47.192;-1.552;2023-10-09T02:31:48;7.35;;;3.97;;
78995;SDS011;68401;47.192;-1.552;2023-10-09T02:34:18;8.20;;;3.95;;
78995;SDS011;68401;47.192;-1.552;2023-10-09T02:36:49;7.32;;;4.43;;
78995;SDS011;68401;47.192;-1.552;2023-10-09T02:39:22;7.80;;;3.97;;
78995;SDS011;68401;47.192;-1.552;2023-10-09T02:41:55;9.43;;;4.35;;
78995;SDS011;68401;47.192;-1.552;2023-10-09T02:44:48;6.93;;;3.88;;
78995;SDS011;68401;47.192;-1.552;2023-10-09T02:47:17;6.82;;;3.75;;
78995;SDS011;68401;47.192;-1.552;2023-10-09T02:49:49;9.05;;;4.07;;
78995;SDS011;68401;47.192;-1.552;2023-10-09T02:52:15;6.13;;;3.42;;
78995;SDS011;68401;47.192;-1.552;2023-10-09T02:54:49;6.43;;;3.40;;
78995;SDS011;68401;47.192;-1.552;2023-10-09T02:57:24;6.45;;;3.60;;
78995;SDS011;68401;47.192;-1.552;2023-10-09T03:00:01;10.13;;;4.05;;
78995;SDS011;68401;47.192;-1.552;2023-10-09T03:02:28;10.10;;;4.35;;
78995;SDS011;68401;47.192;-1.552;2023-10-09T03:04:56;6.28;;;3.42;;
78995;SDS011;68401;47.192;-1.552;2023-10-09T03:07:24;8.95;;;4.28;;
78995;SDS011;68401;47.192;-1.552;2023-10-09T03:09:49;7.60;;;3.72;;
78995;SDS011;68401;47.192;-1.552;2023-10-09T03:12:15;6.63;;;3.63;;
78995;SDS011;68401;47.192;-1.552;2023-10-09T03:14:43;7.63;;;4.50;;
78995;SDS011;68401;47.192;-1.552;2023-10-09T03:17:09;7.78;;;4.20;;
78995;SDS011;68401;47.192;-1.552;2023-10-09T03:19:36;5.65;;;3.58;;
78995;SDS011;68401;47.192;-1.552;2023-10-09T03:22:08;7.13;;;3.97;;
78995;SDS011;68401;47.192;-1.552;2023-10-09T03:24:35;11.23;;;4.38;;
78995;SDS011;68401;47.192;-1.552;2023-10-09T03:27:01;8.48;;;3.90;;
78995;SDS011;68401;47.192;-1.552;2023-10-09T03:29:29;10.57;;;3.75;;
78995;SDS011;68401;47.192;-1.552;2023-10-09T03:31:55;8.70;;;4.20;;
78995;SDS011;68401;47.192;-1.552;2023-10-09T03:34:25;6.72;;;3.97;;
78995;SDS011;68401;47.192;-1.552;2023-10-09T03:36:50;10.07;;;4.85;;
78995;SDS011;68401;47.192;-1.552;2023-10-09T03:39:38;7.80;;;3.53;;
78995;SDS011;68401;47.192;-1.552;2023-10-09T03:42:07;6.93;;;3.70;;
78995;SDS011;68401;47.192;-1.552;2023-10-09T03:44:36;8.05;;;4.05;;
78995;SDS011;68401;47.192;-1.552;2023-10-09T03:47:06;13.68;;;5.30;;
78995;SDS011;68401;47.192;-1.552;2023-10-09T03:52:04;8.00;;;3.90;;
78995;SDS011;68401;47.192;-1.552;2023-10-09T03:54:31;10.38;;;3.83;;
78995;SDS011;68401;47.192;-1.552;2023-10-09T03:56:57;6.88;;;3.90;;
78995;SDS011;68401;47.192;-1.552;2023-10-09T03:59:23;7.65;;;3.88;;
78995;SDS011;68401;47.192;-1.552;2023-10-09T04:01:55;9.10;;;4.07;;
78995;SDS011;68401;47.192;-1.552;2023-10-09T04:04:23;9.60;;;3.85;;
78995;SDS011;68401;47.192;-1.552;2023-10-09T04:06:48;8.77;;;3.60;;
78995;SDS011;68401;47.192;-1.552;2023-10-09T04:09:14;9.02;;;4.30;;
78995;SDS011;68401;47.192;-1.552;2023-10-09T04:14:33;7.40;;;3.80;;
78995;SDS011;68401;47.192;-1.552;2023-10-09T04:17:01;8.20;;;4.40;;
78995;SDS011;68401;47.192;-1.552;2023-10-09T04:19:46;6.88;;;3.90;;
78995;SDS011;68401;47.192;-1.552;2023-10-09T04:22:34;7.18;;;3.55;;
78995;SDS011;68401;47.192;-1.552;2023-10-09T04:25:21;8.80;;;4.40;;
78995;SDS011;68401;47.192;-1.552;2023-10-09T04:28:06;7.22;;;3.92;;
78995;SDS011;68401;47.192;-1.552;2023-10-09T04:30:44;6.80;;;3.95;;
78995;SDS011;68401;47.192;-1.552;2023-10-09T04:33:18;8.15;;;3.90;;
78995;SDS011;68401;47.192;-1.552;2023-10-09T04:38:43;7.85;;;3.50;;
78995;SDS011;68401;47.192;-1.552;2023-10-09T04:41:39;6.20;;;4.35;;
78995;SDS011;68401;47.192;-1.552;2023-10-09T04:44:07;8.63;;;4.57;;
78995;SDS011;68401;47.192;-1.552;2023-10-09T04:46:54;9.00;;;4.20;;
78995;SDS011;68401;47.192;-1.552;2023-10-09T04:49:38;5.22;;;3.70;;
78995;SDS011;68401;47.192;-1.552;2023-10-09T04:52:12;9.70;;;4.35;;
78995;SDS011;68401;47.192;-1.552;2023-10-09T04:55:04;6.00;;;4.20;;
78995;SDS011;68401;47.192;-1.552;2023-10-09T04:57:43;7.90;;;4.50;;
78995;SDS011;68401;47.192;-1.552;2023-10-09T05:00:16;6.30;;;4.32;;
78995;SDS011;68401;47.192;-1.552;2023-10-09T05:02:51;5.70;;;3.72;;
78995;SDS011;68401;47.192;-1.552;2023-10-09T05:05:24;7.68;;;4.10;;
78995;SDS011;68401;47.192;-1.552;2023-10-09T05:08:18;7.75;;;4.20;;
78995;SDS011;68401;47.192;-1.552;2023-10-09T05:10:50;6.18;;;3.80;;
78995;SDS011;68401;47.192;-1.552;2023-10-09T05:13:23;6.93;;;4.10;;
78995;SDS011;68401;47.192;-1.552;2023-10-09T05:18:52;8.70;;;4.45;;
78995;SDS011;68401;47.192;-1.552;2023-10-09T05:23:56;9.38;;;5.18;;
78995;SDS011;68401;47.192;-1.552;2023-10-09T05:26:36;8.55;;;4.45;;
78995;SDS011;68401;47.192;-1.552;2023-10-09T05:29:19;10.55;;;4.68;;
78995;SDS011;68401;47.192;-1.552;2023-10-09T05:32:04;8.13;;;5.30;;
78995;SDS011;68401;47.192;-1.552;2023-10-09T05:34:43;8.75;;;4.65;;
78995;SDS011;68401;47.192;-1.552;2023-10-09T05:37:21;10.98;;;5.63;;
78995;SDS011;68401;47.192;-1.552;2023-10-09T05:39:50;8.82;;;4.63;;
78995;SDS011;68401;47.192;-1.552;2023-10-09T05:42:25;7.93;;;4.60;;
78995;SDS011;68401;47.192;-1.552;2023-10-09T05:45:06;7.15;;;4.20;;
78995;SDS011;68401;47.192;-1.552;2023-10-09T05:47:57;6.93;;;4.10;;
78995;SDS011;68401;47.192;-1.552;2023-10-09T05:50:26;7.90;;;4.18;;
78995;SDS011;68401;47.192;-1.552;2023-10-09T05:52:52;7.35;;;4.70;;
78995;SDS011;68401;47.192;-1.552;2023-10-09T05:55:19;8.40;;;4.40;;
78995;SDS011;68401;47.192;-1.552;2023-10-09T05:57:54;9.07;;;4.88;;
78995;SDS011;68401;47.192;-1.552;2023-10-09T06:00:24;8.23;;;5.47;;
78995;SDS011;68401;47.192;-1.552;2023-10-09T06:03:08;6.60;;;4.22;;
78995;SDS011;68401;47.192;-1.552;2023-10-09T06:08:21;8.18;;;4.90;;
78995;SDS011;68401;47.192;-1.552;2023-10-09T06:10:52;9.20;;;4.70;;
78995;SDS011;68401;47.192;-1.552;2023-10-09T06:13:36;7.65;;;4.45;;
78995;SDS011;68401;47.192;-1.552;2023-10-09T06:16:12;8.32;;;4.60;;
78995;SDS011;68401;47.192;-1.552;2023-10-09T06:18:57;8.80;;;4.32;;
78995;SDS011;68401;47.192;-1.552;2023-10-09T06:21:43;8.68;;;4.68;;
78995;SDS011;68401;47.192;-1.552;2023-10-09T06:24:18;6.43;;;4.55;;
78995;SDS011;68401;47.192;-1.552;2023-10-09T06:26:51;11.80;;;4.75;;
78995;SDS011;68401;47.192;-1.552;2023-10-09T06:29:29;10.10;;;5.45;;
78995;SDS011;68401;47.192;-1.552;2023-10-09T06:32:05;8.77;;;5.13;;
78995;SDS011;68401;47.192;-1.552;2023-10-09T06:34:44;7.32;;;4.97;;
78995;SDS011;68401;47.192;-1.552;2023-10-09T06:37:11;11.50;;;5.03;;
78995;SDS011;68401;47.192;-1.552;2023-10-09T06:39:53;9.25;;;5.32;;
78995;SDS011;68401;47.192;-1.552;2023-10-09T06:42:22;8.00;;;4.68;;
78995;SDS011;68401;47.192;-1.552;2023-10-09T06:45:03;10.18;;;5.15;;
78995;SDS011;68401;47.192;-1.552;2023-10-09T06:47:40;8.52;;;5.22;;
78995;SDS011;68401;47.192;-1.552;2023-10-09T06:50:15;10.82;;;6.03;;
78995;SDS011;68401;47.192;-1.552;2023-10-09T06:52:47;9.40;;;5.40;;
78995;SDS011;68401;47.192;-1.552;2023-10-09T06:55:40;8.80;;;4.70;;
78995;SDS011;68401;47.192;-1.552;2023-10-09T06:58:15;9.18;;;4.63;;
78995;SDS011;68401;47.192;-1.552;2023-10-09T07:00:48;12.63;;;4.80;;
78995;SDS011;68401;47.192;-1.552;2023-10-09T07:03:37;9.68;;;5.53;;
78995;SDS011;68401;47.192;-1.552;2023-10-09T07:06:17;17.67;;;8.82;;
78995;SDS011;68401;47.192;-1.552;2023-10-09T07:09:03;9.60;;;5.57;;
78995;SDS011;68401;47.192;-1.552;2023-10-09T07:11:32;11.75;;;5.65;;
78995;SDS011;68401;47.192;-1.552;2023-10-09T07:14:16;7.35;;;5.07;;
78995;SDS011;68401;47.192;-1.552;2023-10-09T07:16:59;9.23;;;4.65;;
78995;SDS011;68401;47.192;-1.552;2023-10-09T07:19:41;12.25;;;4.82;;
78995;SDS011;68401;47.192;-1.552;2023-10-09T07:22:07;10.23;;;5.50;;
78995;SDS011;68401;47.192;-1.552;2023-10-09T07:24:49;9.98;;;5.95;;
78995;SDS011;68401;47.192;-1.552;2023-10-09T07:27:31;12.27;;;5.03;;
78995;SDS011;68401;47.192;-1.552;2023-10-09T07:33:06;9.90;;;6.03;;
78995;SDS011;68401;47.192;-1.552;2023-10-09T07:38:16;10.65;;;5.30;;
78995;SDS011;68401;47.192;-1.552;2023-10-09T07:40:46;9.27;;;4.85;;
78995;SDS011;68401;47.192;-1.552;2023-10-09T07:43:27;12.15;;;5.43;;
78995;SDS011;68401;47.192;-1.552;2023-10-09T07:46:17;11.13;;;5.60;;
78995;SDS011;68401;47.192;-1.552;2023-10-09T07:48:58;12.20;;;5.53;;
78995;SDS011;68401;47.192;-1.552;2023-10-09T07:51:34;12.45;;;4.95;;
78995;SDS011;68401;47.192;-1.552;2023-10-09T07:54:01;10.27;;;5.18;;
78995;SDS011;68401;47.192;-1.552;2023-10-09T07:56:33;11.40;;;4.75;;
78995;SDS011;68401;47.192;-1.552;2023-10-09T07:59:03;12.13;;;5.05;;
78995;SDS011;68401;47.192;-1.552;2023-10-09T08:01:35;15.65;;;5.55;;
78995;SDS011;68401;47.192;-1.552;2023-10-09T08:04:02;9.27;;;5.30;;
78995;SDS011;68401;47.192;-1.552;2023-10-09T08:06:36;11.80;;;5.70;;
78995;SDS011;68401;47.192;-1.552;2023-10-09T08:09:07;7.97;;;5.97;;
78995;SDS011;68401;47.192;-1.552;2023-10-09T08:11:42;8.32;;;5.53;;
78995;SDS011;68401;47.192;-1.552;2023-10-09T08:14:12;12.93;;;5.90;;
78995;SDS011;68401;47.192;-1.552;2023-10-09T08:17:06;12.43;;;6.72;;
78995;SDS011;68401;47.192;-1.552;2023-10-09T08:19:42;13.68;;;5.57;;
78995;SDS011;68401;47.192;-1.552;2023-10-09T08:22:28;10.60;;;5.28;;
78995;SDS011;68401;47.192;-1.552;2023-10-09T08:24:54;14.13;;;6.30;;
78995;SDS011;68401;47.192;-1.552;2023-10-09T08:30:02;14.80;;;6.65;;
78995;SDS011;68401;47.192;-1.552;2023-10-09T08:32:43;15.63;;;9.35;;
78995;SDS011;68401;47.192;-1.552;2023-10-09T08:35:36;9.80;;;6.43;;
78995;SDS011;68401;47.192;-1.552;2023-10-09T08:38:14;12.32;;;6.53;;
78995;SDS011;68401;47.192;-1.552;2023-10-09T08:40:40;15.23;;;7.28;;
78995;SDS011;68401;47.192;-1.552;2023-10-09T08:45:38;22.60;;;6.68;;
78995;SDS011;68401;47.192;-1.552;2023-10-09T08:48:05;10.88;;;5.63;;
78995;SDS011;68401;47.192;-1.552;2023-10-09T08:50:32;8.35;;;5.00;;
78995;SDS011;68401;47.192;-1.552;2023-10-09T08:52:59;17.42;;;5.97;;
78995;SDS011;68401;47.192;-1.552;2023-10-09T08:55:25;16.23;;;6.05;;
78995;SDS011;68401;47.192;-1.552;2023-10-09T08:57:50;9.90;;;5.25;;
78995;SDS011;68401;47.192;-1.552;2023-10-09T09:00:17;13.23;;;6.32;;
78995;SDS011;68401;47.192;-1.552;2023-10-09T09:02:52;9.07;;;5.35;;
78995;SDS011;68401;47.192;-1.552;2023-10-09T09:05:21;10.90;;;5.78;;
78995;SDS011;68401;47.192;-1.552;2023-10-09T09:07:47;17.55;;;5.70;;
78995;SDS011;68401;47.192;-1.552;2023-10-09T09:10:13;10.77;;;5.07;;
78995;SDS011;68401;47.192;-1.552;2023-10-09T09:12:56;9.70;;;5.30;;
78995;SDS011;68401;47.192;-1.552;2023-10-09T09:15:29;10.27;;;5.50;;
78995;SDS011;68401;47.192;-1.552;2023-10-09T09:18:13;11.13;;;5.93;;
78995;SDS011;68401;47.192;-1.552;2023-10-09T09:20:42;11.15;;;5.30;;
78995;SDS011;68401;47.192;-1.552;2023-10-09T09:23:11;10.38;;;5.40;;
78995;SDS011;68401;47.192;-1.552;2023-10-09T09:28:11;12.32;;;6.13;;
78995;SDS011;68401;47.192;-1.552;2023-10-09T09:30:44;15.50;;;6.00;;
78995;SDS011;68401;47.192;-1.552;2023-10-09T09:33:25;10.95;;;5.35;;
78995;SDS011;68401;47.192;-1.552;2023-10-09T09:36:04;12.73;;;5.28;;
78995;SDS011;68401;47.192;-1.552;2023-10-09T09:38:31;12.75;;;5.88;;
78995;SDS011;68401;47.192;-1.552;2023-10-09T09:41:07;19.48;;;6.22;;
78995;SDS011;68401;47.192;-1.552;2023-10-09T09:43:33;12.55;;;5.97;;
78995;SDS011;68401;47.192;-1.552;2023-10-09T09:46:00;16.10;;;5.65;;
78995;SDS011;68401;47.192;-1.552;2023-10-09T09:48:39;13.73;;;6.15;;
78995;SDS011;68401;47.192;-1.552;2023-10-09T09:51:05;14.35;;;5.22;;
78995;SDS011;68401;47.192;-1.552;2023-10-09T09:53:33;10.40;;;4.82;;
78995;SDS011;68401;47.192;-1.552;2023-10-09T09:56:00;15.20;;;5.35;;
78995;SDS011;68401;47.192;-1.552;2023-10-09T09:58:25;17.75;;;5.97;;
78995;SDS011;68401;47.192;-1.552;2023-10-09T10:00:59;13.85;;;5.45;;
78995;SDS011;68401;47.192;-1.552;2023-10-09T10:03:36;13.52;;;4.43;;
78995;SDS011;68401;47.192;-1.552;2023-10-09T10:06:04;14.55;;;5.40;;
78995;SDS011;68401;47.192;-1.552;2023-10-09T10:08:35;11.85;;;4.85;;
78995;SDS011;68401;47.192;-1.552;2023-10-09T10:11:04;13.43;;;4.47;;
78995;SDS011;68401;47.192;-1.552;2023-10-09T10:18:58;11.18;;;4.38;;
78995;SDS011;68401;47.192;-1.552;2023-10-09T10:21:36;14.20;;;5.20;;
78995;SDS011;68401;47.192;-1.552;2023-10-09T10:24:04;12.20;;;4.63;;
78995;SDS011;68401;47.192;-1.552;2023-10-09T10:26:36;19.15;;;4.82;;
78995;SDS011;68401;47.192;-1.552;2023-10-09T10:29:14;12.18;;;5.15;;
78995;SDS011;68401;47.192;-1.552;2023-10-09T10:31:59;10.80;;;4.80;;
78995;SDS011;68401;47.192;-1.552;2023-10-09T10:34:26;14.20;;;4.97;;
78995;SDS011;68401;47.192;-1.552;2023-10-09T10:36:52;10.27;;;4.75;;
78995;SDS011;68401;47.192;-1.552;2023-10-09T10:39:23;21.25;;;14.55;;
78995;SDS011;68401;47.192;-1.552;2023-10-09T10:42:10;13.32;;;6.38;;
78995;SDS011;68401;47.192;-1.552;2023-10-09T10:44:58;12.63;;;5.30;;
78995;SDS011;68401;47.192;-1.552;2023-10-09T10:47:26;8.95;;;4.40;;
78995;SDS011;68401;47.192;-1.552;2023-10-09T10:49:59;12.65;;;4.18;;
78995;SDS011;68401;47.192;-1.552;2023-10-09T10:52:49;11.02;;;4.65;;
78995;SDS011;68401;47.192;-1.552;2023-10-09T10:55:22;11.88;;;5.20;;
78995;SDS011;68401;47.192;-1.552;2023-10-09T10:58:00;12.02;;;5.18;;
78995;SDS011;68401;47.192;-1.552;2023-10-09T11:00:29;10.00;;;4.40;;
78995;SDS011;68401;47.192;-1.552;2023-10-09T11:03:19;10.52;;;5.00;;
78995;SDS011;68401;47.192;-1.552;2023-10-09T11:06:00;10.90;;;4.72;;
78995;SDS011;68401;47.192;-1.552;2023-10-09T11:08:43;10.90;;;4.10;;
78995;SDS011;68401;47.192;-1.552;2023-10-09T11:11:19;12.05;;;4.85;;
78995;SDS011;68401;47.192;-1.552;2023-10-09T11:13:45;10.98;;;3.83;;
78995;SDS011;68401;47.192;-1.552;2023-10-09T11:16:22;10.70;;;4.55;;
78995;SDS011;68401;47.192;-1.552;2023-10-09T11:19:00;16.65;;;5.13;;
78995;SDS011;68401;47.192;-1.552;2023-10-09T11:21:37;6.68;;;3.88;;
78995;SDS011;68401;47.192;-1.552;2023-10-09T11:24:07;9.30;;;4.60;;
78995;SDS011;68401;47.192;-1.552;2023-10-09T11:26:51;8.30;;;4.10;;
78995;SDS011;68401;47.192;-1.552;2023-10-09T11:29:20;8.63;;;3.42;;
78995;SDS011;68401;47.192;-1.552;2023-10-09T11:32:05;8.65;;;4.07;;
78995;SDS011;68401;47.192;-1.552;2023-10-09T11:34:34;7.13;;;4.03;;
78995;SDS011;68401;47.192;-1.552;2023-10-09T11:37:03;12.07;;;3.92;;
78995;SDS011;68401;47.192;-1.552;2023-10-09T11:39:38;11.27;;;4.07;;
78995;SDS011;68401;47.192;-1.552;2023-10-09T11:42:19;7.65;;;4.05;;
78995;SDS011;68401;47.192;-1.552;2023-10-09T11:47:50;10.00;;;3.97;;
78995;SDS011;68401;47.192;-1.552;2023-10-09T11:53:28;9.45;;;3.50;;
78995;SDS011;68401;47.192;-1.552;2023-10-09T11:55:54;10.10;;;3.83;;
78995;SDS011;68401;47.192;-1.552;2023-10-09T11:58:19;7.68;;;3.97;;
78995;SDS011;68401;47.192;-1.552;2023-10-09T12:00:52;9.77;;;4.10;;
78995;SDS011;68401;47.192;-1.552;2023-10-09T12:03:26;8.02;;;3.45;;
78995;SDS011;68401;47.192;-1.552;2023-10-09T12:06:01;9.45;;;3.72;;
78995;SDS011;68401;47.192;-1.552;2023-10-09T12:08:33;11.32;;;3.42;;
78995;SDS011;68401;47.192;-1.552;2023-10-09T12:10:59;8.93;;;3.75;;
78995;SDS011;68401;47.192;-1.552;2023-10-09T12:13:33;14.57;;;4.60;;
78995;SDS011;68401;47.192;-1.552;2023-10-09T12:15:58;6.53;;;3.53;;
78995;SDS011;68401;47.192;-1.552;2023-10-09T12:18:24;8.98;;;3.60;;
78995;SDS011;68401;47.192;-1.552;2023-10-09T12:20:49;11.40;;;3.78;;
78995;SDS011;68401;47.192;-1.552;2023-10-09T12:23:27;13.77;;;5.63;;
78995;SDS011;68401;47.192;-1.552;2023-10-09T12:25:53;10.35;;;4.00;;
78995;SDS011;68401;47.192;-1.552;2023-10-09T12:28:21;9.55;;;3.47;;
78995;SDS011;68401;47.192;-1.552;2023-10-09T12:30:47;9.85;;;3.55;;
78995;SDS011;68401;47.192;-1.552;2023-10-09T12:33:16;12.35;;;4.22;;
78995;SDS011;68401;47.192;-1.552;2023-10-09T12:35:43;5.68;;;3.58;;
78995;SDS011;68401;47.192;-1.552;2023-10-09T12:38:12;7.07;;;3.50;;
78995;SDS011;68401;47.192;-1.552;2023-10-09T12:40:43;7.47;;;4.07;;
78995;SDS011;68401;47.192;-1.552;2023-10-09T12:43:15;16.13;;;3.90;;
78995;SDS011;68401;47.192;-1.552;2023-10-09T12:45:45;7.43;;;4.65;;
78995;SDS011;68401;47.192;-1.552;2023-10-09T12:48:11;15.43;;;3.92;;
78995;SDS011;68401;47.192;-1.552;2023-10-09T12:50:37;13.80;;;3.95;;
78995;SDS011;68401;47.192;-1.552;2023-10-09T12:53:09;6.70;;;3.40;;
78995;SDS011;68401;47.192;-1.552;2023-10-09T12:55:39;8.40;;;3.55;;
78995;SDS011;68401;47.192;-1.552;2023-10-09T12:58:06;7.55;;;3.65;;
78995;SDS011;68401;47.192;-1.552;2023-10-09T13:00:38;8.77;;;3.70;;
78995;SDS011;68401;47.192;-1.552;2023-10-09T13:03:12;7.13;;;3.88;;
78995;SDS011;68401;47.192;-1.552;2023-10-09T13:05:49;8.63;;;3.25;;
78995;SDS011;68401;47.192;-1.552;2023-10-09T13:08:28;10.40;;;3.72;;
78995;SDS011;68401;47.192;-1.552;2023-10-09T13:10:57;6.70;;;3.60;;
78995;SDS011;68401;47.192;-1.552;2023-10-09T13:13:29;12.55;;;3.08;;
78995;SDS011;68401;47.192;-1.552;2023-10-09T13:16:17;7.50;;;3.35;;
78995;SDS011;68401;47.192;-1.552;2023-10-09T13:21:16;7.90;;;3.42;;
78995;SDS011;68401;47.192;-1.552;2023-10-09T13:23:45;9.45;;;3.50;;
78995;SDS011;68401;47.192;-1.552;2023-10-09T13:26:19;7.13;;;3.08;;
78995;SDS011;68401;47.192;-1.552;2023-10-09T13:28:57;6.57;;;3.08;;
78995;SDS011;68401;47.192;-1.552;2023-10-09T13:31:23;8.65;;;3.70;;
78995;SDS011;68401;47.192;-1.552;2023-10-09T13:33:51;7.43;;;3.25;;
78995;SDS011;68401;47.192;-1.552;2023-10-09T13:36:20;6.80;;;3.22;;
78995;SDS011;68401;47.192;-1.552;2023-10-09T13:38:56;9.80;;;4.32;;
78995;SDS011;68401;47.192;-1.552;2023-10-09T13:41:56;8.90;;;3.38;;
78995;SDS011;68401;47.192;-1.552;2023-10-09T13:44:32;13.52;;;3.22;;
78995;SDS011;68401;47.192;-1.552;2023-10-09T13:47:02;6.97;;;3.10;;
78995;SDS011;68401;47.192;-1.552;2023-10-09T13:49:33;5.63;;;3.22;;
78995;SDS011;68401;47.192;-1.552;2023-10-09T13:52:02;6.80;;;3.00;;
78995;SDS011;68401;47.192;-1.552;2023-10-09T13:54:28;7.07;;;3.30;;
78995;SDS011;68401;47.192;-1.552;2023-10-09T13:57:04;6.13;;;3.03;;
78995;SDS011;68401;47.192;-1.552;2023-10-09T13:59:34;8.40;;;3.85;;
78995;SDS011;68401;47.192;-1.552;2023-10-09T14:02:01;7.45;;;3.47;;
78995;SDS011;68401;47.192;-1.552;2023-10-09T14:04:34;5.70;;;2.97;;
78995;SDS011;68401;47.192;-1.552;2023-10-09T14:06:59;6.38;;;3.47;;
78995;SDS011;68401;47.192;-1.552;2023-10-09T14:09:27;7.57;;;3.17;;
78995;SDS011;68401;47.192;-1.552;2023-10-09T14:11:59;6.97;;;3.30;;
78995;SDS011;68401;47.192;-1.552;2023-10-09T14:14:36;6.78;;;3.42;;
78995;SDS011;68401;47.192;-1.552;2023-10-09T14:17:12;8.02;;;3.92;;
78995;SDS011;68401;47.192;-1.552;2023-10-09T14:22:19;5.82;;;3.38;;
78995;SDS011;68401;47.192;-1.552;2023-10-09T14:24:46;7.40;;;3.22;;
78995;SDS011;68401;47.192;-1.552;2023-10-09T14:27:15;7.03;;;3.75;;
78995;SDS011;68401;47.192;-1.552;2023-10-09T14:29:49;6.57;;;3.05;;
78995;SDS011;68401;47.192;-1.552;2023-10-09T14:32:15;10.57;;;3.97;;
78995;SDS011;68401;47.192;-1.552;2023-10-09T14:34:41;7.18;;;3.72;;
78995;SDS011;68401;47.192;-1.552;2023-10-09T14:37:11;6.80;;;3.75;;
78995;SDS011;68401;47.192;-1.552;2023-10-09T14:39:40;8.95;;;3.90;;
78995;SDS011;68401;47.192;-1.552;2023-10-09T14:42:06;7.20;;;3.35;;
78995;SDS011;68401;47.192;-1.552;2023-10-09T14:44:37;7.53;;;3.15;;
78995;SDS011;68401;47.192;-1.552;2023-10-09T14:47:09;14.00;;;3.60;;
78995;SDS011;68401;47.192;-1.552;2023-10-09T14:49:46;5.93;;;3.20;;
78995;SDS011;68401;47.192;-1.552;2023-10-09T14:52:12;6.47;;;3.40;;
78995;SDS011;68401;47.192;-1.552;2023-10-09T14:54:41;8.65;;;3.67;;
78995;SDS011;68401;47.192;-1.552;2023-10-09T14:57:07;7.13;;;4.05;;
78995;SDS011;68401;47.192;-1.552;2023-10-09T14:59:33;7.07;;;3.55;;
78995;SDS011;68401;47.192;-1.552;2023-10-09T15:01:59;7.65;;;3.25;;
78995;SDS011;68401;47.192;-1.552;2023-10-09T15:04:24;7.60;;;3.78;;
78995;SDS011;68401;47.192;-1.552;2023-10-09T15:06:53;7.07;;;3.42;;
78995;SDS011;68401;47.192;-1.552;2023-10-09T15:09:18;6.45;;;3.35;;
78995;SDS011;68401;47.192;-1.552;2023-10-09T15:11:47;6.40;;;3.60;;
78995;SDS011;68401;47.192;-1.552;2023-10-09T15:14:17;10.18;;;4.53;;
78995;SDS011;68401;47.192;-1.552;2023-10-09T15:16:44;6.93;;;3.03;;
78995;SDS011;68401;47.192;-1.552;2023-10-09T15:19:11;6.07;;;3.20;;
78995;SDS011;68401;47.192;-1.552;2023-10-09T15:21:37;7.20;;;3.67;;
78995;SDS011;68401;47.192;-1.552;2023-10-09T15:24:09;10.02;;;3.42;;
78995;SDS011;68401;47.192;-1.552;2023-10-09T15:26:35;6.50;;;3.67;;
78995;SDS011;68401;47.192;-1.552;2023-10-09T15:29:01;6.65;;;3.35;;
78995;SDS011;68401;47.192;-1.552;2023-10-09T15:33:56;9.75;;;4.95;;
78995;SDS011;68401;47.192;-1.552;2023-10-09T15:36:22;8.98;;;3.88;;
78995;SDS011;68401;47.192;-1.552;2023-10-09T15:38:53;7.75;;;4.03;;
78995;SDS011;68401;47.192;-1.552;2023-10-09T15:41:22;9.57;;;4.47;;
78995;SDS011;68401;47.192;-1.552;2023-10-09T15:43:47;7.88;;;3.80;;
78995;SDS011;68401;47.192;-1.552;2023-10-09T15:46:13;7.35;;;3.22;;
78995;SDS011;68401;47.192;-1.552;2023-10-09T15:48:42;6.22;;;3.45;;
78995;SDS011;68401;47.192;-1.552;2023-10-09T15:51:09;8.93;;;4.68;;
78995;SDS011;68401;47.192;-1.552;2023-10-09T15:53:37;5.88;;;3.42;;
78995;SDS011;68401;47.192;-1.552;2023-10-09T15:56:03;6.30;;;3.60;;
78995;SDS011;68401;47.192;-1.552;2023-10-09T15:58:29;6.05;;;3.65;;